Main page
METAR-TAF:

METAR-TAF

Airports :

Riga International Airport

Riga, Latvia

latitude: 56-55N, longitude: 023-58E, elevation: 10 m

Current weather observation

The report was made 34 minutes ago, at 04:50 UTC
Wind 5 kt from the East/Northeast, varying between North and East
Temperature 22°C
Humidity 73%
Pressure 1010 hPa
Visibility 10 km or more
no clouds below 1500 m and no cumulonimbus

METAR: EVRA 170450Z 06005KT 010V090 CAVOK 22/17 Q1010 NOSIG

Time: 08:24 (05:24 UTC)

Forecast

The report was made 3 hours and 24 minutes ago, at 02:00 UTC
Forecast valid from 17 at 03 UTC to 18 at 03 UTC
Wind 7 kt from the North/Northeast
Visibility 10 km or more
no clouds below 1500 m and no cumulonimbus
Temporary
from 17 at 08 UTC to 17 at 15 UTC
Wind 12 kt from the North/Northeast with gusts up to 25 kt

TAF: EVRA 170200Z 1703/1803 02007KT CAVOK TEMPO 1708/1715 02012G25KT

Weather observations and forecasts of more than 4000 airports (METAR and TAF reports).

The available stations are represented by yellow and red dots on the map.

Hover mouse over dot to see the name of the station.

Then click to see weather observations and forecasts.

To change the map : click on the green buttons with a black cross to zoom in, on the green button with a dash to zoom out, or on the green arrows for adjacent maps.


METAR-TAF: